createdAt,value
2022-12-18T00:01:18.556Z,52.29
2022-12-18T00:03:47.241Z,51.57
2022-12-18T00:06:15.653Z,51.73
2022-12-18T00:08:43.298Z,51.44
2022-12-18T00:11:14.630Z,51.98
2022-12-18T00:13:42.983Z,51.91
2022-12-18T00:16:14.718Z,51.81
2022-12-18T00:18:43.472Z,51.52
2022-12-18T00:21:13.859Z,51.38
2022-12-18T00:23:43.931Z,51.02
2022-12-18T00:26:14.130Z,51.05
2022-12-18T00:28:41.870Z,51.69
2022-12-18T00:31:11.732Z,51.10
2022-12-18T00:33:41.222Z,50.88
2022-12-18T00:36:12.765Z,50.95
2022-12-18T00:38:41.503Z,51.35
2022-12-18T00:41:11.027Z,51.69
2022-12-18T00:43:38.391Z,51.77
2022-12-18T00:46:07.050Z,50.86
2022-12-18T00:48:35.093Z,51.35
2022-12-18T00:51:04.253Z,51.03
2022-12-18T00:53:31.900Z,51.57
2022-12-18T00:55:59.595Z,51.30
2022-12-18T00:58:27.269Z,51.26
2022-12-18T01:00:54.937Z,50.83
2022-12-18T01:03:22.581Z,51.14
2022-12-18T01:05:50.310Z,51.39
2022-12-18T01:08:19.621Z,51.03
2022-12-18T01:10:47.300Z,50.57
2022-12-18T01:13:15.199Z,51.19
2022-12-18T01:15:42.925Z,50.59
2022-12-18T01:18:10.590Z,50.91
2022-12-18T01:20:40.031Z,50.96
2022-12-18T01:23:07.709Z,50.39
2022-12-18T01:25:37.624Z,50.32
2022-12-18T01:28:05.515Z,51.02
2022-12-18T01:30:33.196Z,50.92
2022-12-18T01:33:00.845Z,51.03
2022-12-18T01:35:28.548Z,50.35
2022-12-18T01:37:56.666Z,51.15
2022-12-18T01:40:24.401Z,51.17
2022-12-18T01:42:55.116Z,50.67
2022-12-18T01:45:29.248Z,50.40
2022-12-18T01:47:59.684Z,50.81
2022-12-18T01:50:32.536Z,50.46
2022-12-18T01:53:05.797Z,50.41
2022-12-18T01:55:39.115Z,50.85
2022-12-18T01:58:08.243Z,50.61
2022-12-18T02:00:36.178Z,50.83
2022-12-18T02:03:03.930Z,50.69
2022-12-18T02:05:42.105Z,50.50
2022-12-18T02:08:12.787Z,50.35
2022-12-18T02:10:47.821Z,50.36
2022-12-18T02:13:22.869Z,50.84
2022-12-18T02:16:00.253Z,51.05
2022-12-18T02:18:34.511Z,50.82
2022-12-18T02:21:10.990Z,50.58
2022-12-18T02:23:51.509Z,50.12
2022-12-18T02:26:27.860Z,50.29
2022-12-18T02:28:59.652Z,50.28
2022-12-18T02:31:30.460Z,50.71
2022-12-18T02:34:02.019Z,50.71
2022-12-18T02:36:31.654Z,50.28
2022-12-18T02:39:01.622Z,50.16
2022-12-18T02:41:31.944Z,50.34
2022-12-18T02:44:03.554Z,50.05
2022-12-18T02:46:35.115Z,50.02
2022-12-18T02:49:17.629Z,50.43
2022-12-18T02:51:52.741Z,50.51
2022-12-18T02:54:33.273Z,50.11
2022-12-18T02:57:13.412Z,50.33
2022-12-18T02:59:45.981Z,50.36
2022-12-18T03:02:23.696Z,50.52
2022-12-18T03:04:57.848Z,50.01
2022-12-18T03:07:35.280Z,50.16
2022-12-18T03:10:03.721Z,50.53
2022-12-18T03:12:37.466Z,50.39
2022-12-18T03:15:15.990Z,50.06
2022-12-18T03:17:50.848Z,50.13
2022-12-18T03:20:21.851Z,50.11
2022-12-18T03:22:55.739Z,49.83
2022-12-18T03:25:24.641Z,50.25
2022-12-18T03:27:58.746Z,49.95
2022-12-18T03:30:28.549Z,49.66
2022-12-18T03:33:03.775Z,50.35
2022-12-18T03:35:37.041Z,50.00
2022-12-18T03:38:04.807Z,50.05
2022-12-18T03:40:43.094Z,49.91
2022-12-18T03:43:18.861Z,49.97
2022-12-18T03:45:55.092Z,49.91
2022-12-18T03:48:31.446Z,50.05
2022-12-18T03:51:02.429Z,49.86
2022-12-18T03:53:38.796Z,49.55
2022-12-18T03:56:08.618Z,50.16
2022-12-18T03:58:40.795Z,49.98
2022-12-18T04:01:12.867Z,49.86
2022-12-18T04:03:43.166Z,50.04
2022-12-18T04:06:12.061Z,50.51
2022-12-18T04:08:41.066Z,50.44
2022-12-18T04:11:09.024Z,49.97
2022-12-18T04:13:39.800Z,50.29
2022-12-18T04:16:08.435Z,49.76
2022-12-18T04:18:36.373Z,50.12
2022-12-18T04:21:04.320Z,50.09
2022-12-18T04:23:31.961Z,50.09
2022-12-18T04:25:59.654Z,50.07
2022-12-18T04:28:27.316Z,50.13
2022-12-18T04:30:56.367Z,50.16
2022-12-18T04:33:24.095Z,49.93
2022-12-18T04:35:51.777Z,50.28
2022-12-18T04:38:19.459Z,50.16
2022-12-18T04:40:47.224Z,50.10
2022-12-18T04:43:14.923Z,49.91
2022-12-18T04:45:42.634Z,49.84
2022-12-18T04:48:11.636Z,49.58
2022-12-18T04:50:39.618Z,50.07
2022-12-18T04:53:08.700Z,49.75
2022-12-18T04:55:37.763Z,50.07
2022-12-18T04:58:05.904Z,49.87
2022-12-18T05:00:33.589Z,49.53
2022-12-18T05:03:03.468Z,49.84
2022-12-18T05:05:33.053Z,50.02
2022-12-18T05:08:01.709Z,49.79
2022-12-18T05:10:33.446Z,49.78
2022-12-18T05:13:05.373Z,49.47
2022-12-18T05:15:33.982Z,49.79
2022-12-18T05:18:02.721Z,49.19
2022-12-18T05:20:31.863Z,49.57
2022-12-18T05:22:59.537Z,49.60
2022-12-18T05:25:27.382Z,49.74
2022-12-18T05:27:55.209Z,49.52
2022-12-18T05:30:23.437Z,49.61
2022-12-18T05:32:51.106Z,49.51
2022-12-18T05:35:18.924Z,49.54
2022-12-18T05:37:47.947Z,49.83
2022-12-18T05:40:15.589Z,49.61
2022-12-18T05:42:48.005Z,49.72
2022-12-18T05:45:15.645Z,49.65
2022-12-18T05:47:43.343Z,49.48
2022-12-18T05:50:11.375Z,49.57
2022-12-18T05:52:39.078Z,49.46
2022-12-18T05:55:08.720Z,49.70
2022-12-18T05:57:36.394Z,49.64
2022-12-18T06:00:04.609Z,49.61
2022-12-18T06:02:32.365Z,49.81
2022-12-18T06:05:00.080Z,49.75
2022-12-18T06:07:27.776Z,49.54
2022-12-18T06:09:55.456Z,49.10
2022-12-18T06:12:24.520Z,49.08
2022-12-18T06:14:52.211Z,48.77
2022-12-18T06:17:19.878Z,48.42
2022-12-18T06:19:47.568Z,48.07
2022-12-18T06:22:15.266Z,47.97
2022-12-18T06:24:42.938Z,48.06
2022-12-18T06:27:10.650Z,47.16
2022-12-18T06:29:39.738Z,46.71
2022-12-18T06:32:07.467Z,46.23
2022-12-18T06:34:35.603Z,46.54
2022-12-18T06:37:03.275Z,46.34
2022-12-18T06:39:31.169Z,45.84
2022-12-18T06:41:58.892Z,45.43
2022-12-18T06:44:26.560Z,45.21
2022-12-18T06:46:55.595Z,45.31
2022-12-18T06:49:27.362Z,45.82
2022-12-18T06:51:57.905Z,45.25
2022-12-18T06:54:25.553Z,45.99
2022-12-18T06:56:53.201Z,45.98
2022-12-18T06:59:21.180Z,46.68
2022-12-18T07:01:48.900Z,47.18
2022-12-18T07:04:18.108Z,47.76
2022-12-18T07:06:45.770Z,47.79
2022-12-18T07:09:13.399Z,48.10
2022-12-18T07:11:41.196Z,48.10
2022-12-18T07:14:08.936Z,48.32
2022-12-18T07:16:36.610Z,47.97
2022-12-18T07:19:04.521Z,48.34
2022-12-18T07:21:33.626Z,48.23
2022-12-18T07:24:01.428Z,48.75
2022-12-18T07:26:29.089Z,48.72
2022-12-18T07:28:58.430Z,49.01
2022-12-18T07:31:26.961Z,48.51
2022-12-18T07:33:54.681Z,48.78
2022-12-18T07:36:22.348Z,48.48
2022-12-18T07:38:52.946Z,47.91
2022-12-18T07:41:21.392Z,47.37
2022-12-18T07:43:49.755Z,47.49
2022-12-18T07:46:18.593Z,46.72
2022-12-18T07:48:49.896Z,46.51
2022-12-18T07:51:19.039Z,46.51
2022-12-18T07:53:46.709Z,46.00
2022-12-18T07:56:27.030Z,45.80
2022-12-18T07:58:56.190Z,46.08
2022-12-18T08:01:24.167Z,45.49
2022-12-18T08:03:52.166Z,45.49
2022-12-18T08:06:24.179Z,45.63
2022-12-18T08:08:53.712Z,46.24
2022-12-18T08:11:23.611Z,45.96
2022-12-18T08:13:51.406Z,46.63
2022-12-18T08:16:20.101Z,47.61
2022-12-18T08:18:49.503Z,47.76
2022-12-18T08:21:20.607Z,47.81
2022-12-18T08:23:49.656Z,47.98
2022-12-18T08:26:19.000Z,48.58
2022-12-18T08:28:48.487Z,48.39
2022-12-18T08:31:16.986Z,49.00
2022-12-18T08:33:44.802Z,48.66
2022-12-18T08:36:12.653Z,49.13
2022-12-18T08:38:40.993Z,49.47
2022-12-18T08:41:11.467Z,49.46
2022-12-18T08:43:56.750Z,49.46
2022-12-18T08:46:27.820Z,49.55
2022-12-18T08:48:56.939Z,49.82
2022-12-18T08:51:24.696Z,49.83
2022-12-18T08:53:52.424Z,50.10
2022-12-18T08:56:20.163Z,50.18
2022-12-18T08:58:47.993Z,50.40
2022-12-18T09:01:15.823Z,50.17
2022-12-18T09:03:45.249Z,50.13
2022-12-18T09:06:16.647Z,49.74
2022-12-18T09:08:44.779Z,49.58
2022-12-18T09:11:16.919Z,49.09
2022-12-18T09:13:44.712Z,48.71
2022-12-18T09:16:12.402Z,49.01
2022-12-18T09:18:40.524Z,48.99
2022-12-18T09:21:14.644Z,48.90
2022-12-18T09:23:43.025Z,49.20
2022-12-18T09:26:11.174Z,49.63
2022-12-18T09:28:39.419Z,49.83
2022-12-18T09:31:09.411Z,50.06
2022-12-18T09:33:37.495Z,50.13
2022-12-18T09:36:07.652Z,50.38
2022-12-18T09:38:37.506Z,50.73
2022-12-18T09:41:17.372Z,50.42
2022-12-18T09:43:49.497Z,50.74
2022-12-18T09:46:26.422Z,50.66
2022-12-18T09:48:56.535Z,50.75
2022-12-18T09:51:29.346Z,51.19
2022-12-18T09:54:03.176Z,51.16
2022-12-18T09:56:33.759Z,51.31
2022-12-18T09:59:02.991Z,51.32
2022-12-18T10:01:40.209Z,51.08
2022-12-18T10:04:11.623Z,50.71
2022-12-18T10:06:45.240Z,50.34
2022-12-18T10:09:22.492Z,50.29
2022-12-18T10:11:57.341Z,49.29
2022-12-18T10:14:31.519Z,49.01
2022-12-18T10:17:04.886Z,48.84
2022-12-18T10:19:41.913Z,48.17
2022-12-18T10:22:15.953Z,48.35
2022-12-18T10:24:53.538Z,48.70
2022-12-18T10:27:25.767Z,49.59
2022-12-18T10:29:53.541Z,49.96
2022-12-18T10:32:23.683Z,50.10
2022-12-18T10:34:58.298Z,50.19
2022-12-18T10:37:30.782Z,50.98
2022-12-18T10:40:18.290Z,50.46
2022-12-18T10:43:04.809Z,51.13
2022-12-18T10:45:32.572Z,51.08
2022-12-18T10:48:00.699Z,51.15
2022-12-18T10:51:08.719Z,51.40
2022-12-18T10:53:23.638Z,51.66
2022-12-18T10:55:54.514Z,51.81
2022-12-18T10:58:26.881Z,51.97
2022-12-18T11:01:07.626Z,52.18
2022-12-18T11:03:37.710Z,52.10
2022-12-18T11:06:08.330Z,52.32
2022-12-18T11:08:36.392Z,52.28
2022-12-18T11:11:09.100Z,52.47
2022-12-18T11:13:36.849Z,52.30
2022-12-18T11:16:04.648Z,52.42
2022-12-18T11:18:35.648Z,52.63
2022-12-18T11:21:10.129Z,52.24
2022-12-18T11:23:39.425Z,52.28
2022-12-18T11:26:09.301Z,52.62
2022-12-18T11:28:41.428Z,52.48
2022-12-18T11:31:29.192Z,52.46
2022-12-18T11:36:50.125Z,52.86
2022-12-18T11:39:22.494Z,52.75
2022-12-18T11:42:13.394Z,53.22
2022-12-18T11:44:48.353Z,53.08
2022-12-18T11:47:27.269Z,53.03
2022-12-18T11:49:57.989Z,53.22
2022-12-18T11:52:29.300Z,52.94
2022-12-18T11:55:00.754Z,53.16
2022-12-18T11:57:40.405Z,52.84
2022-12-18T12:00:15.952Z,52.94
2022-12-18T12:03:10.170Z,53.20
2022-12-18T12:05:52.255Z,52.59
2022-12-18T12:08:30.402Z,52.37
2022-12-18T12:11:06.955Z,51.48
2022-12-18T12:13:50.517Z,51.42
2022-12-18T12:16:24.270Z,50.50
2022-12-18T12:19:17.616Z,50.41
2022-12-18T12:21:54.572Z,50.32
2022-12-18T12:24:32.806Z,50.92
2022-12-18T12:27:07.800Z,51.52
2022-12-18T12:29:49.742Z,51.38
2022-12-18T12:32:29.304Z,51.36
2022-12-18T12:35:10.232Z,51.70
2022-12-18T12:37:50.276Z,52.10
2022-12-18T12:40:50.319Z,52.47
2022-12-18T12:43:21.440Z,52.10
2022-12-18T12:45:54.391Z,51.76
2022-12-18T12:48:35.095Z,52.45
2022-12-18T12:51:09.248Z,52.17
2022-12-18T12:53:40.153Z,51.91
2022-12-18T12:56:11.674Z,51.53
2022-12-18T12:58:49.092Z,50.86
2022-12-18T13:01:30.731Z,50.57
2022-12-18T13:04:08.441Z,49.87
2022-12-18T13:06:46.283Z,49.81
2022-12-18T13:09:14.386Z,49.67
2022-12-18T13:12:01.155Z,50.58
2022-12-18T13:14:32.042Z,50.40
2022-12-18T13:17:19.358Z,51.45
2022-12-18T13:19:50.896Z,51.17
2022-12-18T13:22:24.801Z,51.58
2022-12-18T13:24:53.373Z,51.79
2022-12-18T13:28:05.289Z,52.08
2022-12-18T13:30:50.937Z,52.86
2022-12-18T13:36:40.696Z,52.82
2022-12-18T13:39:35.169Z,53.07
2022-12-18T13:42:57.068Z,53.44
2022-12-18T13:45:42.174Z,52.74
2022-12-18T13:48:23.037Z,53.19
2022-12-18T13:50:55.887Z,53.19
2022-12-18T13:53:28.475Z,53.44
2022-12-18T13:55:56.773Z,53.65
2022-12-18T13:58:24.583Z,53.45
2022-12-18T14:00:52.430Z,53.31
2022-12-18T14:03:23.687Z,53.69
2022-12-18T14:06:00.705Z,53.29
2022-12-18T14:08:34.324Z,54.27
2022-12-18T14:11:04.367Z,53.63
2022-12-18T14:13:35.954Z,53.94
2022-12-18T14:16:07.411Z,53.58
2022-12-18T14:18:44.142Z,53.90
2022-12-18T14:21:22.214Z,53.86
2022-12-18T14:23:50.152Z,52.93
2022-12-18T14:26:25.515Z,52.24
2022-12-18T14:28:54.863Z,52.49
2022-12-18T14:31:24.497Z,52.18
2022-12-18T14:33:53.436Z,52.88
2022-12-18T14:36:24.588Z,52.75
2022-12-18T14:38:54.673Z,53.01
2022-12-18T14:41:23.997Z,53.83
2022-12-18T14:43:53.041Z,53.84
2022-12-18T14:46:30.555Z,53.87
2022-12-18T14:48:59.013Z,53.58
2022-12-18T14:51:29.950Z,53.61
2022-12-18T14:53:59.605Z,53.18
2022-12-18T14:56:29.278Z,53.15
2022-12-18T14:58:59.581Z,52.45
2022-12-18T15:01:33.512Z,51.82
2022-12-18T15:04:02.935Z,51.98
2022-12-18T15:06:37.666Z,51.01
2022-12-18T15:09:22.687Z,50.50
2022-12-18T15:11:51.370Z,50.14
2022-12-18T15:14:33.430Z,50.35
2022-12-18T15:17:02.382Z,50.30
2022-12-18T15:19:37.296Z,49.82
2022-12-18T15:22:06.965Z,49.70
2022-12-18T15:24:34.983Z,50.21
2022-12-18T15:27:03.081Z,50.48
2022-12-18T15:29:30.886Z,50.92
2022-12-18T15:32:04.031Z,51.21
2022-12-18T15:34:33.240Z,51.89
2022-12-18T15:37:00.935Z,52.08
2022-12-18T15:39:30.362Z,52.71
2022-12-18T15:42:15.438Z,52.35
2022-12-18T15:44:43.151Z,52.76
2022-12-18T15:47:14.589Z,53.39
2022-12-18T15:49:42.360Z,53.24
2022-12-18T15:52:14.448Z,53.06
2022-12-18T15:55:09.241Z,53.39
2022-12-18T15:57:37.180Z,53.07
2022-12-18T16:00:05.653Z,53.10
2022-12-18T16:02:33.537Z,52.97
2022-12-18T16:05:01.384Z,53.20
2022-12-18T16:07:30.751Z,52.07
2022-12-18T16:10:01.002Z,52.57
2022-12-18T16:12:30.532Z,51.84
2022-12-18T16:14:58.275Z,50.92
2022-12-18T16:17:25.990Z,51.17
2022-12-18T16:19:54.135Z,50.59
2022-12-18T16:22:23.822Z,50.71
2022-12-18T16:24:52.369Z,50.19
2022-12-18T16:27:22.020Z,51.18
2022-12-18T16:29:50.477Z,51.50
2022-12-18T16:32:20.482Z,51.99
2022-12-18T16:34:48.663Z,52.52
2022-12-18T16:37:17.602Z,52.65
2022-12-18T16:39:46.177Z,52.47
2022-12-18T16:42:17.562Z,52.40
2022-12-18T16:44:47.986Z,52.85
2022-12-18T16:47:16.418Z,52.74
2022-12-18T16:49:45.278Z,52.71
2022-12-18T16:52:13.212Z,52.89
2022-12-18T16:54:40.897Z,52.71
2022-12-18T16:57:08.622Z,53.11
2022-12-18T16:59:36.327Z,53.69
2022-12-18T17:02:05.688Z,53.95
2022-12-18T17:04:33.737Z,53.53
2022-12-18T17:07:01.417Z,53.40
2022-12-18T17:09:29.093Z,53.76
2022-12-18T17:11:57.201Z,53.56
2022-12-18T17:14:26.286Z,54.22
2022-12-18T17:17:19.931Z,54.49
2022-12-18T17:19:45.978Z,54.46
2022-12-18T17:22:13.703Z,53.60
2022-12-18T17:24:41.399Z,54.13
2022-12-18T17:27:09.488Z,54.28
2022-12-18T17:29:41.134Z,54.20
2022-12-18T17:32:13.001Z,54.02
2022-12-18T17:34:40.974Z,52.87
2022-12-18T17:37:10.454Z,52.78
2022-12-18T17:39:38.388Z,52.25
2022-12-18T17:42:06.771Z,51.85
2022-12-18T17:44:35.606Z,51.18
2022-12-18T17:47:03.497Z,51.44
2022-12-18T17:49:31.333Z,50.92
2022-12-18T17:51:59.106Z,50.64
2022-12-18T17:54:28.166Z,51.06
2022-12-18T17:56:55.826Z,50.81
2022-12-18T17:59:23.710Z,51.43
2022-12-18T18:01:51.525Z,51.59
2022-12-18T18:04:19.945Z,52.45
2022-12-18T18:06:47.767Z,52.54
2022-12-18T18:09:16.534Z,52.47
2022-12-18T18:12:04.489Z,52.47
2022-12-18T18:14:33.075Z,52.12
2022-12-18T18:17:04.811Z,53.21
2022-12-18T18:19:34.102Z,53.00
2022-12-18T18:22:02.958Z,53.03
2022-12-18T18:24:31.139Z,52.73
2022-12-18T18:27:00.596Z,53.31
2022-12-18T18:29:30.307Z,53.00
2022-12-18T18:31:58.261Z,53.39
2022-12-18T18:34:28.300Z,53.22
2022-12-18T18:36:55.980Z,52.79
2022-12-18T18:39:23.632Z,52.94
2022-12-18T18:41:52.086Z,52.80
2022-12-18T18:44:26.053Z,53.12
2022-12-18T18:46:54.929Z,53.68
2022-12-18T18:49:24.127Z,52.68
2022-12-18T18:51:52.119Z,52.10
2022-12-18T18:54:20.808Z,52.24
2022-12-18T18:59:39.077Z,51.52
2022-12-18T19:02:07.513Z,50.52
2022-12-18T19:04:36.498Z,50.75
2022-12-18T19:07:06.706Z,50.18
2022-12-18T19:09:36.172Z,50.26
2022-12-18T19:12:22.449Z,50.21
2022-12-18T19:14:51.584Z,50.51
2022-12-18T19:17:19.256Z,51.48
2022-12-18T19:19:46.987Z,52.00
2022-12-18T19:22:14.735Z,51.72
2022-12-18T19:24:42.416Z,52.50
2022-12-18T19:27:10.156Z,52.47
2022-12-18T19:29:37.912Z,52.71
2022-12-18T19:32:07.386Z,52.79
2022-12-18T19:34:35.151Z,53.07
2022-12-18T19:37:02.807Z,54.20
2022-12-18T19:39:30.643Z,53.73
2022-12-18T19:41:58.408Z,54.25
2022-12-18T19:44:26.814Z,54.69
2022-12-18T19:46:54.526Z,54.04
2022-12-18T19:49:23.560Z,54.56
2022-12-18T19:51:51.970Z,54.31
2022-12-18T19:54:19.793Z,55.29
2022-12-18T19:56:47.731Z,54.94
2022-12-18T19:59:15.444Z,55.09
2022-12-18T20:01:43.462Z,55.55
2022-12-18T20:04:11.334Z,55.72
2022-12-18T20:06:49.122Z,55.39
2022-12-18T20:09:17.902Z,55.84
2022-12-18T20:11:46.962Z,56.00
2022-12-18T20:14:21.147Z,55.17
2022-12-18T20:16:51.688Z,55.42
2022-12-18T20:19:19.923Z,55.46
2022-12-18T20:21:49.703Z,56.53
2022-12-18T20:24:17.409Z,55.69
2022-12-18T20:26:45.210Z,55.86
2022-12-18T20:29:12.858Z,56.50
2022-12-18T20:31:40.680Z,56.22
2022-12-18T20:34:08.453Z,56.56
2022-12-18T20:36:37.551Z,56.82
2022-12-18T20:39:08.754Z,55.93
2022-12-18T20:41:37.859Z,56.89
2022-12-18T20:44:10.980Z,56.44
2022-12-18T20:46:51.851Z,56.29
2022-12-18T20:49:19.681Z,56.52
2022-12-18T20:51:50.341Z,56.41
2022-12-18T20:54:19.432Z,57.33
2022-12-18T20:56:47.151Z,57.27
2022-12-18T20:59:14.877Z,57.38
2022-12-18T21:01:47.558Z,57.34
2022-12-18T21:04:17.510Z,57.47
2022-12-18T21:06:51.257Z,57.16
2022-12-18T21:09:22.329Z,57.05
2022-12-18T21:12:08.046Z,57.58
2022-12-18T21:14:38.576Z,57.53
2022-12-18T21:17:06.528Z,57.38
2022-12-18T21:19:34.230Z,57.34
2022-12-18T21:22:02.193Z,58.31
2022-12-18T21:24:32.700Z,57.63
2022-12-18T21:27:02.050Z,58.16
2022-12-18T21:29:30.011Z,58.21
2022-12-18T21:31:57.660Z,57.40
2022-12-18T21:34:27.341Z,57.22
2022-12-18T21:36:56.599Z,57.54
2022-12-18T21:39:26.002Z,57.75
2022-12-18T21:42:12.596Z,57.97
2022-12-18T21:44:42.243Z,58.21
2022-12-18T21:47:22.188Z,58.48
2022-12-18T21:49:50.210Z,57.77
2022-12-18T21:52:17.998Z,58.55
2022-12-18T21:54:45.648Z,58.18
2022-12-18T21:57:14.828Z,58.19
2022-12-18T21:59:43.805Z,58.65
2022-12-18T22:02:14.029Z,58.35
2022-12-18T22:04:42.215Z,58.22
2022-12-18T22:07:10.414Z,58.90
2022-12-18T22:09:39.272Z,58.61
2022-12-18T22:12:08.980Z,58.98
2022-12-18T22:14:38.337Z,58.51
2022-12-18T22:17:06.032Z,58.00
2022-12-18T22:19:41.111Z,58.96
2022-12-18T22:22:10.655Z,58.83
2022-12-18T22:24:38.356Z,58.70
2022-12-18T22:27:06.039Z,58.44
2022-12-18T22:29:51.172Z,58.69
2022-12-18T22:32:29.434Z,58.94
2022-12-18T22:35:05.957Z,59.56
2022-12-18T22:37:35.066Z,58.81
2022-12-18T22:40:03.940Z,59.57
2022-12-18T22:42:31.934Z,59.20
2022-12-18T22:45:00.282Z,59.26
2022-12-18T22:47:30.635Z,58.87
2022-12-18T22:49:58.687Z,59.92
2022-12-18T22:52:26.439Z,59.24
2022-12-18T22:54:54.506Z,58.98
2022-12-18T22:57:22.615Z,59.36
2022-12-18T22:59:50.377Z,59.29
2022-12-18T23:02:19.048Z,60.14
2022-12-18T23:04:48.532Z,59.05
2022-12-18T23:07:16.618Z,59.80
2022-12-18T23:09:44.843Z,59.11
2022-12-18T23:12:21.169Z,59.98
2022-12-18T23:14:49.183Z,60.14
2022-12-18T23:17:16.999Z,60.13
2022-12-18T23:19:49.065Z,60.02
2022-12-18T23:22:18.665Z,59.46
2022-12-18T23:24:47.076Z,60.39
2022-12-18T23:27:14.912Z,60.54
2022-12-18T23:29:42.585Z,59.98
2022-12-18T23:32:11.193Z,60.47
2022-12-18T23:34:38.885Z,60.73
2022-12-18T23:37:06.532Z,60.16
2022-12-18T23:39:35.550Z,59.79
2022-12-18T23:42:03.183Z,60.54
2022-12-18T23:44:30.934Z,60.63
2022-12-18T23:46:58.623Z,60.45
2022-12-18T23:49:26.311Z,60.31
2022-12-18T23:51:54.901Z,60.21
2022-12-18T23:54:30.155Z,60.67
2022-12-18T23:57:02.779Z,60.55
2022-12-18T23:59:30.487Z,60.30
